Time;durP1;ratioP1;P1;durP2;ratioP2;P2;SDS_P1;SDS_P2;PMS_P1;PMS_P2;Temp;Humidity;BMP_temperature;BMP_pressure;BME280_temperature;BME280_humidity;BME280_pressure;Samples;Min_cycle;Max_cycle;Signal;HPM_P1;HPM_P2
2022/05/10 00:01:28;;;;;;;8.97;7.67;;;13.60;99.90;;;;;;4961329;28;20407;-86
2022/05/10 00:03:55;;;;;;;9.97;7.97;;;13.50;99.90;;;;;;4977463;28;20566;-87
2022/05/10 00:06:22;;;;;;;11.87;7.90;;;;;;;;;;4973254;28;20522;-85
2022/05/10 00:08:48;;;;;;;9.50;7.43;;;;;;;;;;4972096;28;20490;-86
2022/05/10 00:11:14;;;;;;;11.33;8.17;;;;;;;;;;4972653;28;20521;-87
2022/05/10 00:13:40;;;;;;;10.83;8.07;;;;;;;;;;4954619;28;20423;-87
2022/05/10 00:16:14;;;;;;;12.07;8.40;;;13.50;99.90;;;;;;4949058;29;21120;-86
2022/05/10 00:18:40;;;;;;;11.07;8.83;;;;;;;;;;4980714;28;20453;-85
2022/05/10 00:21:06;;;;;;;9.77;8.23;;;;;;;;;;4973028;28;20476;-84
2022/05/10 00:23:32;;;;;;;12.63;8.30;;;;;;;;;;4961553;28;20485;-86
2022/05/10 00:25:58;;;;;;;10.60;9.30;;;;;;;;;;4954112;28;20423;-84
2022/05/10 00:28:24;;;;;;;10.73;8.93;;;12.90;99.90;;;;;;4969926;28;20442;-88
2022/05/10 00:30:50;;;;;;;12.47;9.47;;;;;;;;;;4960173;29;20188;-87
2022/05/10 00:33:19;;;;;;;11.83;9.47;;;12.60;99.90;;;;;;4977010;28;20250;-87
2022/05/10 00:35:45;;;;;;;14.20;9.70;;;;;;;;;;4976357;28;20427;-87
2022/05/10 00:38:11;;;;;;;11.32;10.13;;;;;;;;;;4981625;28;20168;-87
2022/05/10 00:40:38;;;;;;;15.32;9.90;;;12.70;99.90;;;;;;4973788;28;20195;-86
2022/05/10 00:43:25;;;;;;;13.00;10.07;;;12.30;99.90;;;;;;4968204;28;20188;-89
2022/05/10 00:46:02;;;;;;;14.15;9.63;;;12.70;99.90;;;;;;4961026;28;20203;-83
2022/05/10 00:48:46;;;;;;;10.50;9.40;;;12.60;99.90;;;;;;4961100;28;20179;-88
2022/05/10 00:51:20;;;;;;;17.02;11.23;;;12.60;99.90;;;;;;4955493;28;20207;-89
2022/05/10 00:53:53;;;;;;;12.48;10.35;;;12.60;99.90;;;;;;4967659;28;20855;-86
2022/05/10 00:56:29;;;;;;;11.98;9.68;;;12.70;99.90;;;;;;4953087;28;20191;-87
2022/05/10 00:59:01;;;;;;;13.18;9.70;;;12.70;99.90;;;;;;4967120;28;20294;-88
2022/05/10 01:01:33;;;;;;;12.50;9.80;;;12.70;99.90;;;;;;4964543;28;20195;-87
2022/05/10 01:04:21;;;;;;;15.38;10.15;;;12.60;99.90;;;;;;4952640;28;20200;-88
2022/05/10 01:07:04;;;;;;;11.45;9.90;;;12.40;99.90;;;;;;4956500;28;20180;-89
2022/05/10 01:09:54;;;;;;;12.95;11.55;;;12.40;99.90;;;;;;4959766;28;20630;-87
2022/05/10 01:12:44;;;;;;;16.60;10.95;;;12.30;99.90;;;;;;4948684;28;20180;-87
2022/05/10 01:15:15;;;;;;;16.13;10.82;;;12.10;99.90;;;;;;4967430;28;20188;-88
2022/05/10 01:17:41;;;;;;;12.90;10.43;;;13.60;99.90;;;;;;4958057;28;20203;-86
2022/05/10 01:20:08;;;;;;;13.80;11.63;;;12.30;99.90;;;;;;4952616;28;20241;-85
2022/05/10 01:22:56;;;;;;;17.08;11.95;;;12.20;99.90;;;;;;4953944;28;20475;-88
2022/05/10 01:26:06;;;;;;;17.30;12.57;;;12.30;99.90;;;;;;4953062;28;20237;-87
2022/05/10 01:28:40;;;;;;;12.98;10.95;;;12.20;99.90;;;;;;4955822;28;20259;-86
2022/05/10 01:31:30;;;;;;;14.85;10.85;;;12.20;99.90;;;;;;4950587;28;20187;-83
2022/05/10 01:34:03;;;;;;;15.40;11.38;;;12.20;99.90;;;;;;4952787;28;20240;-82
2022/05/10 01:36:46;;;;;;;13.90;11.98;;;12.20;99.90;;;;;;4963099;28;20184;-80
2022/05/10 01:39:31;;;;;;;15.88;12.80;;;12.10;99.90;;;;;;4950121;28;20200;-82
2022/05/10 01:42:10;;;;;;;14.30;12.63;;;13.20;99.90;;;;;;4966762;28;20274;-82
2022/05/10 01:44:48;;;;;;;19.55;13.52;;;12.10;99.90;;;;;;4958905;28;20223;-84
2022/05/10 01:47:20;;;;;;;14.43;12.93;;;12.00;99.90;;;;;;4949004;28;20184;-84
2022/05/10 01:50:08;;;;;;;16.33;12.70;;;11.90;99.90;;;;;;4965481;28;20291;-83
2022/05/10 01:52:47;;;;;;;17.70;13.93;;;11.90;99.90;;;;;;4951345;28;20233;-84
2022/05/10 01:55:30;;;;;;;14.57;12.70;;;11.80;99.90;;;;;;4955725;28;20184;-80
2022/05/10 01:58:00;;;;;;;15.10;12.63;;;11.80;99.90;;;;;;4965721;28;20189;-82
2022/05/10 02:00:27;;;;;;;13.73;12.32;;;11.70;99.90;;;;;;4955576;28;21223;-79
2022/05/10 02:03:17;;;;;;;16.85;13.32;;;11.70;99.90;;;;;;4947846;28;20760;-83
2022/05/10 02:05:54;;;;;;;15.30;12.98;;;11.80;99.90;;;;;;4963736;28;20215;-81
2022/05/10 02:08:42;;;;;;;18.23;13.70;;;11.70;99.90;;;;;;4945747;28;20172;-85
2022/05/10 02:11:12;;;;;;;21.58;13.55;;;11.70;99.90;;;;;;4969095;28;20284;-83
2022/05/10 02:13:44;;;;;;;19.27;14.30;;;11.70;99.90;;;;;;4968910;28;20192;-84
2022/05/10 02:16:42;;;;;;;19.30;13.93;;;11.60;99.90;;;;;;4947643;28;20731;-81
2022/05/10 02:19:17;;;;;;;18.23;14.98;;;11.60;99.90;;;;;;4962398;28;20609;-83
2022/05/10 02:21:48;;;;;;;19.88;13.98;;;11.60;99.90;;;;;;4951671;28;20194;-84
2022/05/10 02:24:23;;;;;;;21.48;14.23;;;11.60;99.90;;;;;;4952044;28;20286;-84
2022/05/10 02:26:55;;;;;;;15.05;12.90;;;11.40;99.90;;;;;;4956970;28;20236;-83
2022/05/10 02:29:40;;;;;;;15.02;13.48;;;11.40;99.90;;;;;;4949077;28;20230;-80
2022/05/10 02:35:12;;;;;;;17.90;13.80;;;11.30;99.90;;;;;;4964902;28;20270;-84
2022/05/10 02:37:38;;;;;;;21.48;15.38;;;11.40;99.90;;;;;;4965566;28;20673;-82
2022/05/10 02:40:05;;;;;;;17.83;14.83;;;10.20;99.90;;;;;;4971927;28;20214;-82
2022/05/10 02:42:32;;;;;;;23.58;16.70;;;11.50;99.90;;;;;;4955403;28;20191;-84
2022/05/10 02:44:58;;;;;;;18.45;16.02;;;11.50;99.90;;;;;;4969275;28;20216;-84
2022/05/10 02:47:29;;;;;;;19.47;16.10;;;11.50;99.90;;;;;;4971223;28;20234;-82
2022/05/10 02:49:54;;;;;;;15.95;13.43;;;11.60;99.90;;;;;;4953630;28;20890;-82
2022/05/10 02:52:20;;;;;;;27.30;15.67;;;;;;;;;;4969350;28;20188;-81
2022/05/10 02:54:46;;;;;;;18.53;15.10;;;11.50;99.90;;;;;;4955662;28;20228;-82
2022/05/10 02:57:12;;;;;;;16.90;14.10;;;;;;;;;;4967387;28;21035;-85
2022/05/10 02:59:38;;;;;;;16.92;14.65;;;11.30;99.90;;;;;;4951734;28;20254;-84
2022/05/10 03:02:18;;;;;;;19.42;15.68;;;11.30;99.90;;;;;;4965049;28;20191;-84
2022/05/10 03:04:50;;;;;;;23.80;16.40;;;11.30;99.90;;;;;;4957318;28;20196;-83
2022/05/10 03:07:15;;;;;;;17.65;14.65;;;11.20;99.90;;;;;;4964915;28;20185;-83
2022/05/10 03:09:41;;;;;;;19.83;15.73;;;11.30;99.90;;;;;;4965919;28;20222;-84
2022/05/10 03:12:07;;;;;;;21.27;16.83;;;;;;;;;;4962516;28;20402;-82
2022/05/10 03:14:34;;;;;;;18.95;15.48;;;11.20;99.90;;;;;;4968028;28;20542;-84
2022/05/10 03:16:59;;;;;;;20.98;16.70;;;11.20;99.90;;;;;;4952691;28;20984;-80
2022/05/10 03:19:25;;;;;;;20.93;16.80;;;11.20;99.90;;;;;;4952286;28;20207;-85
2022/05/10 03:21:51;;;;;;;20.93;14.50;;;;;;;;;;4967695;28;20181;-80
2022/05/10 03:24:16;;;;;;;19.13;16.50;;;11.10;99.90;;;;;;4964878;28;20208;-84
2022/05/10 03:26:48;;;;;;;19.87;16.90;;;11.10;99.90;;;;;;4971013;28;20525;-85
2022/05/10 03:29:15;;;;;;;22.90;16.45;;;11.10;99.90;;;;;;4967116;28;20204;-84
2022/05/10 03:31:41;;;;;;;22.08;16.70;;;11.00;99.90;;;;;;4951459;28;20219;-82
2022/05/10 03:36:50;;;;;;;20.90;15.63;;;11.00;99.90;;;;;;4970391;28;20247;-84
2022/05/10 03:39:16;;;;;;;21.40;17.90;;;;;;;;;;4964837;28;20201;-81
2022/05/10 03:41:43;;;;;;;24.90;18.47;;;;;;;;;;4952889;28;20211;-82
2022/05/10 03:44:09;;;;;;;30.83;18.67;;;;;;;;;;4958002;28;20468;-83
2022/05/10 03:46:35;;;;;;;25.80;18.17;;;10.90;99.90;;;;;;4959255;28;20189;-83
2022/05/10 03:49:01;;;;;;;24.83;17.17;;;;;;;;;;4949135;28;20464;-78
2022/05/10 03:51:27;;;;;;;23.07;18.20;;;;;;;;;;4955390;28;20204;-80
2022/05/10 03:53:53;;;;;;;22.45;18.05;;;;;;;;;;4950559;28;20466;-81
2022/05/10 03:56:19;;;;;;;20.87;15.23;;;;;;;;;;4948999;28;21139;-83
2022/05/10 03:58:45;;;;;;;19.17;16.43;;;;;;;;;;4956583;28;20546;-84
2022/05/10 04:01:11;;;;;;;23.83;17.17;;;;;;;;;;4968157;28;20443;-81
2022/05/10 04:03:37;;;;;;;23.80;17.03;;;11.00;99.90;;;;;;4966513;28;20468;-84
2022/05/10 04:06:03;;;;;;;21.80;17.37;;;11.10;99.90;;;;;;4968052;28;20440;-81
2022/05/10 04:08:30;;;;;;;20.90;16.77;;;;;;;;;;4969970;28;20207;-83
2022/05/10 04:11:04;;;;;;;23.90;18.35;;;11.10;99.90;;;;;;4955905;28;20212;-87
2022/05/10 04:13:31;;;;;;;19.10;16.40;;;;;;;;;;4960504;28;20205;-90
2022/05/10 04:15:57;;;;;;;22.85;17.63;;;;;;;;;;4966151;28;20224;-86
2022/05/10 04:18:23;;;;;;;21.25;18.63;;;;;;;;;;4961888;28;21513;-85
2022/05/10 04:20:49;;;;;;;24.70;17.70;;;;;;;;;;4964040;28;20202;-85
2022/05/10 04:23:16;;;;;;;30.80;17.63;;;;;;;;;;4951862;28;20483;-88
2022/05/10 04:25:42;;;;;;;29.63;19.02;;;;;;;;;;4961210;28;20490;-86
2022/05/10 04:28:08;;;;;;;27.27;17.77;;;;;;;;;;4964885;28;20180;-89
2022/05/10 04:30:34;;;;;;;19.63;16.57;;;;;;;;;;4947321;28;20439;-84
2022/05/10 04:33:00;;;;;;;16.53;14.73;;;;;;;;;;4963874;28;20498;-87
2022/05/10 04:35:26;;;;;;;22.60;13.53;;;;;;;;;;4943555;28;20475;-86
2022/05/10 04:37:52;;;;;;;17.60;14.27;;;16.80;99.90;;;;;;4948312;28;20558;-87
2022/05/10 04:43:05;;;;;;;14.10;12.57;;;;;;;;;;4965619;28;20195;-86
2022/05/10 04:45:33;;;;;;;15.07;13.57;;;19.00;99.90;;;;;;4950978;28;20467;-85
2022/05/10 04:47:59;;;;;;;14.23;12.73;;;;;;;;;;4965146;28;20435;-85
2022/05/10 04:50:25;;;;;;;15.83;11.13;;;;;;;;;;4964697;28;20467;-82
2022/05/10 04:52:51;;;;;;;14.17;12.40;;;;;;;;;;4975810;28;20435;-85
2022/05/10 04:55:20;;;;;;;15.73;13.73;;;;;;;;;;4974561;28;20419;-84
2022/05/10 04:57:46;;;;;;;14.60;13.10;;;;;;;;;;4961461;28;20439;-83
2022/05/10 05:00:14;;;;;;;13.07;11.13;;;20.70;99.90;;;;;;4953680;28;20464;-84
2022/05/10 05:02:40;;;;;;;14.27;12.33;;;;;;;;;;4957736;28;20428;-83
2022/05/10 05:05:07;;;;;;;15.00;12.33;;;20.50;99.90;;;;;;4976634;28;20972;-83
2022/05/10 05:07:33;;;;;;;15.13;13.70;;;;;;;;;;4972145;28;20438;-82
2022/05/10 05:09:59;;;;;;;17.30;14.17;;;22.20;99.90;;;;;;4975413;28;21105;-84
2022/05/10 05:12:25;;;;;;;14.40;13.00;;;;;;;;;;4954994;28;20960;-84
2022/05/10 05:14:51;;;;;;;19.13;12.40;;;;;;;;;;4967371;28;20467;-84
2022/05/10 05:17:17;;;;;;;15.00;13.07;;;;;;;;;;4960437;28;20443;-82
2022/05/10 05:19:43;;;;;;;16.87;13.13;;;;;;;;;;4968100;28;20522;-83
2022/05/10 05:22:09;;;;;;;14.90;12.07;;;;;;;;;;4954607;28;20447;-83
2022/05/10 05:24:35;;;;;;;18.03;14.60;;;;;;;;;;4958326;28;20456;-80
2022/05/10 05:27:01;;;;;;;15.60;12.93;;;;;;;;;;4950513;28;20442;-84
2022/05/10 05:29:27;;;;;;;14.07;12.67;;;;;;;;;;4952776;28;20455;-83
2022/05/10 05:31:53;;;;;;;12.63;11.33;;;;;;;;;;4950609;28;20431;-84
2022/05/10 05:34:19;;;;;;;14.40;13.00;;;;;;;;;;4956598;28;21184;-83
2022/05/10 05:37:32;;;;;;;18.17;12.90;;;;;;;;;;4955102;28;20445;-84
2022/05/10 05:39:31;;;;;;;14.20;12.63;;;;;;;;;;4974729;28;20494;-82
2022/05/10 05:41:57;;;;;;;13.37;12.10;;;;;;;;;;4959682;28;20815;-82
2022/05/10 05:44:23;;;;;;;15.87;13.37;;;;;;;;;;4955283;28;20473;-84
2022/05/10 05:46:50;;;;;;;14.83;13.23;;;29.80;90.20;;;;;;4958545;28;20441;-83
2022/05/10 05:49:16;;;;;;;20.50;14.23;;;;;;;;;;4950872;28;20480;-82
2022/05/10 05:51:41;;;;;;;13.30;12.10;;;29.90;95.70;;;;;;4967220;28;20501;-84
2022/05/10 05:54:09;;;;;;;13.90;12.60;;;;;;;;;;4960860;28;20444;-82
2022/05/10 05:56:35;;;;;;;18.63;13.10;;;29.30;81.10;;;;;;4969299;28;20212;-83
2022/05/10 05:59:01;;;;;;;17.97;13.73;;;;;;;;;;4951588;28;20459;-85
2022/05/10 06:01:27;;;;;;;18.23;13.43;;;;;;;;;;4968986;28;20776;-84
2022/05/10 06:03:55;;;;;;;16.20;14.50;;;;;;;;;;4955218;28;20512;-83
2022/05/10 06:06:22;;;;;;;14.53;13.13;;;27.50;91.10;;;;;;4957356;28;20845;-83
2022/05/10 06:08:48;;;;;;;14.10;12.70;;;;;;;;;;4967534;28;20453;-84
2022/05/10 06:11:14;;;;;;;16.97;13.27;;;;;;;;;;4968263;28;20449;-85
2022/05/10 06:13:40;;;;;;;15.33;13.80;;;;;;;;;;4965086;28;20416;-80
2022/05/10 06:16:07;;;;;;;14.63;13.20;;;32.00;78.20;;;;;;4966086;28;20472;-83
2022/05/10 06:18:33;;;;;;;19.00;13.77;;;;;;;;;;4947371;28;20455;-83
2022/05/10 06:20:59;;;;;;;14.73;13.27;;;;;;;;;;4966080;28;20436;-83
2022/05/10 06:23:25;;;;;;;15.43;12.90;;;;;;;;;;4965672;28;20435;-83
2022/05/10 06:25:51;;;;;;;17.03;14.10;;;;;;;;;;4950209;28;20510;-84
2022/05/10 06:28:19;;;;;;;15.97;14.30;;;;;;;;;;4968652;28;20789;-83
2022/05/10 06:30:45;;;;;;;16.20;14.83;;;;;;;;;;4966514;28;20462;-85
2022/05/10 06:33:11;;;;;;;15.80;14.20;;;;;;;;;;4968628;28;20442;-83
2022/05/10 06:35:38;;;;;;;15.07;13.77;;;;;;;;;;4953875;28;20441;-82
2022/05/10 06:38:16;;;;;;;16.13;14.80;;;;;;;;;;4956774;28;20432;-83
2022/05/10 06:40:42;;;;;;;17.63;15.93;;;;;;;;;;4974431;28;20838;-83
2022/05/10 06:43:08;;;;;;;18.67;16.90;;;;;;;;;;4968491;28;20439;-82
2022/05/10 06:45:34;;;;;;;18.83;16.93;;;;;;;;;;4967235;28;20498;-83
2022/05/10 06:48:00;;;;;;;18.23;16.53;;;;;;;;;;4970469;28;20498;-85
2022/05/10 06:50:27;;;;;;;17.57;16.07;;;;;;;;;;4968378;28;21114;-82
2022/05/10 06:52:54;;;;;;;18.93;16.97;;;32.30;63.70;;;;;;4957527;28;21172;-84
2022/05/10 06:55:23;;;;;;;16.93;15.63;;;32.10;64.20;;;;;;4967370;28;20446;-85
2022/05/10 06:57:49;;;;;;;16.67;15.20;;;;;;;;;;4948364;28;20450;-84
2022/05/10 07:00:16;;;;;;;18.20;15.67;;;33.30;65.20;;;;;;4955368;28;20494;-82
2022/05/10 07:02:43;;;;;;;18.90;16.93;;;33.20;91.10;;;;;;4965371;28;20446;-83
2022/05/10 07:05:11;;;;;;;21.37;19.07;;;32.30;63.80;;;;;;4970645;28;20459;-82
2022/05/10 07:07:37;;;;;;;19.77;18.00;;;;;;;;;;4965839;28;20450;-85
2022/05/10 07:10:04;;;;;;;19.90;18.00;;;31.70;66.20;;;;;;4961614;28;20532;-82
2022/05/10 07:12:30;;;;;;;19.90;18.10;;;30.50;64.50;;;;;;4962861;28;20458;-82
2022/05/10 07:14:57;;;;;;;20.70;17.37;;;32.20;92.70;;;;;;4966648;28;20453;-85
2022/05/10 07:17:23;;;;;;;19.20;17.40;;;;;;;;;;4950769;28;20199;-84
2022/05/10 07:19:49;;;;;;;17.90;16.30;;;;;;;;;;4964477;28;20551;-85
2022/05/10 07:22:15;;;;;;;21.40;17.10;;;;;;;;;;4953061;28;20437;-84
2022/05/10 07:24:40;;;;;;;19.63;16.30;;;;;;;;;;4966942;28;20487;-84
2022/05/10 07:27:06;;;;;;;19.53;17.13;;;;;;;;;;4955734;28;20434;-83
2022/05/10 07:29:32;;;;;;;18.07;16.50;;;;;;;;;;4949646;28;20458;-82
2022/05/10 07:31:58;;;;;;;18.70;16.70;;;;;;;;;;4969337;28;21245;-83
2022/05/10 07:34:24;;;;;;;18.30;16.37;;;;;;;;;;4967706;28;20439;-83
2022/05/10 07:36:50;;;;;;;17.67;16.07;;;;;;;;;;4954938;28;20442;-83
2022/05/10 07:39:16;;;;;;;18.10;16.27;;;;;;;;;;4972455;28;20498;-84
2022/05/10 07:41:43;;;;;;;17.57;16.03;;;;;;;;;;4970461;28;20852;-83
2022/05/10 07:44:11;;;;;;;18.17;16.43;;;33.20;74.70;;;;;;4969646;28;20472;-85
2022/05/10 07:46:37;;;;;;;17.47;15.83;;;;;;;;;;4972347;28;20441;-82
2022/05/10 07:49:03;;;;;;;18.00;16.37;;;;;;;;;;4969357;28;20451;-82
2022/05/10 07:51:29;;;;;;;16.40;14.90;;;31.10;66.70;;;;;;4954806;28;20441;-83
2022/05/10 07:53:55;;;;;;;16.17;14.67;;;;;;;;;;4955834;28;20530;-81
2022/05/10 07:56:24;;;;;;;16.23;14.63;;;;;;;;;;4969293;28;20527;-82
2022/05/10 07:58:49;;;;;;;16.63;15.03;;;;;;;;;;4965533;28;20486;-82
2022/05/10 08:01:15;;;;;;;15.07;13.57;;;;;;;;;;4974369;28;20441;-82
2022/05/10 08:03:43;;;;;;;15.80;14.33;;;;;;;;;;4972111;28;20443;-84
2022/05/10 08:06:08;;;;;;;15.30;14.03;;;;;;;;;;4970465;28;20860;-82
2022/05/10 08:08:35;;;;;;;16.00;14.70;;;;;;;;;;4970548;28;20480;-85
2022/05/10 08:11:04;;;;;;;16.77;15.23;;;35.00;57.10;;;;;;4972461;28;20507;-83
2022/05/10 08:13:34;;;;;;;17.70;15.77;;;35.70;87.30;;;;;;4960397;28;20551;-80
2022/05/10 08:16:00;;;;;;;15.90;14.80;;;37.00;54.80;;;;;;4968906;28;20930;-82
2022/05/10 08:18:27;;;;;;;18.90;17.40;;;;;;;;;;4968519;28;20457;-84
2022/05/10 08:20:55;;;;;;;17.23;15.50;;;36.50;55.90;;;;;;4973478;28;20439;-84
2022/05/10 08:23:25;;;;;;;18.13;16.93;;;38.50;51.40;;;;;;4969754;28;20458;-85
2022/05/10 08:25:56;;;;;;;18.53;17.03;;;39.70;49.00;;;;;;4959679;28;20502;-83
2022/05/10 08:28:24;;;;;;;18.47;16.60;;;38.20;47.70;;;;;;4974672;28;20427;-82
2022/05/10 08:30:50;;;;;;;18.03;16.83;;;36.90;50.10;;;;;;4972511;28;20444;-85
2022/05/10 08:33:28;;;;;;;19.63;17.87;;;38.80;51.00;;;;;;4953820;28;20439;-83
2022/05/10 08:35:55;;;;;;;16.90;15.80;;;37.60;50.80;;;;;;4971323;28;20447;-83
2022/05/10 08:38:21;;;;;;;18.07;16.70;;;;;;;;;;4973885;28;20431;-81
2022/05/10 08:41:11;;;;;;;19.93;18.30;;;40.50;59.50;;;;;;4970423;28;20439;-84
2022/05/10 08:43:37;;;;;;;20.23;18.60;;;;;;;;;;4969163;28;20801;-83
2022/05/10 08:46:06;;;;;;;19.63;18.43;;;40.10;45.10;;;;;;4971235;28;20431;-83
2022/05/10 08:48:32;;;;;;;20.40;18.73;;;38.50;46.40;;;;;;4971955;28;20463;-85
2022/05/10 08:50:58;;;;;;;22.30;20.60;;;;;;;;;;4959137;28;20880;-81
2022/05/10 08:53:25;;;;;;;21.67;20.20;;;;;;;;;;4969443;28;20431;-84
2022/05/10 08:56:13;;;;;;;19.57;18.27;;;35.10;50.50;;;;;;4974213;28;21182;-85
2022/05/10 08:58:50;;;;;;;18.77;17.57;;;35.00;53.00;;;;;;4970837;28;20851;-84
2022/05/10 09:01:21;;;;;;;20.13;18.63;;;35.60;50.00;;;;;;4972425;28;20449;-82
2022/05/10 09:04:24;;;;;;;19.17;17.90;;;35.30;49.20;;;;;;4974212;28;20440;-83
2022/05/10 09:07:17;;;;;;;20.20;18.60;;;33.90;50.60;;;;;;4942779;28;20443;-82
2022/05/10 09:10:01;;;;;;;18.90;17.70;;;33.70;53.60;;;;;;4970707;28;20899;-84
2022/05/10 09:12:29;;;;;;;21.30;19.50;;;33.20;53.60;;;;;;4966433;28;20473;-84
2022/05/10 09:15:00;;;;;;;18.17;16.67;;;33.90;52.20;;;;;;4972208;28;20430;-84
2022/05/10 09:17:32;;;;;;;19.13;17.73;;;34.90;53.40;;;;;;4969679;28;20444;-83
2022/05/10 09:19:59;;;;;;;20.97;18.97;;;35.80;48.20;;;;;;4969746;28;20469;-84
2022/05/10 09:22:57;;;;;;;18.47;17.20;;;36.00;78.60;;;;;;4972007;28;20465;-86
2022/05/10 09:25:41;;;;;;;18.30;17.20;;;35.80;79.80;;;;;;4970965;28;20471;-85
2022/05/10 09:28:19;;;;;;;21.47;19.97;;;35.70;76.00;;;;;;4972415;28;20440;-83
2022/05/10 09:34:45;;;;;;;21.23;19.77;;;35.30;78.40;;;;;;4976037;28;20510;-84
2022/05/10 09:36:28;;;;;;;20.23;18.47;;;36.20;51.40;;;;;;4973123;28;20436;-82
2022/05/10 09:39:13;;;;;;;19.57;17.70;;;36.50;45.90;;;;;;4970778;28;20467;-83
2022/05/10 09:41:43;;;;;;;19.83;18.50;;;35.20;48.30;;;;;;4957230;28;20442;-83
2022/05/10 09:44:22;;;;;;;17.13;16.10;;;36.20;46.40;;;;;;4974224;28;20457;-84
2022/05/10 09:46:48;;;;;;;18.03;16.63;;;;;;;;;;4956124;28;20580;-86
2022/05/10 09:49:30;;;;;;;17.97;17.00;;;36.60;45.00;;;;;;4975177;28;20498;-79
2022/05/10 09:51:57;;;;;;;17.57;16.57;;;35.70;43.50;;;;;;4970826;28;20474;-81
2022/05/10 09:54:34;;;;;;;19.30;17.70;;;35.00;44.60;;;;;;4957331;28;20457;-85
2022/05/10 09:57:00;;;;;;;17.60;16.63;;;;;;;;;;4967742;28;20442;-83
2022/05/10 09:59:30;;;;;;;17.83;16.63;;;36.30;44.00;;;;;;4965466;28;20536;-85
2022/05/10 10:01:58;;;;;;;18.77;17.37;;;37.90;43.30;;;;;;4968695;28;20419;-86
2022/05/10 10:04:33;;;;;;;25.63;24.33;;;36.60;40.70;;;;;;4975317;28;20556;-84
2022/05/10 10:07:07;;;;;;;25.70;24.37;;;36.10;41.70;;;;;;4957114;28;20488;-81
2022/05/10 10:09:37;;;;;;;26.30;24.77;;;35.30;43.20;;;;;;4970787;28;20454;-85
2022/05/10 10:12:06;;;;;;;16.77;15.87;;;34.70;45.80;;;;;;4967571;28;20438;-83
2022/05/10 10:14:39;;;;;;;24.20;23.00;;;35.10;60.90;;;;;;4954081;28;20448;-82
2022/05/10 10:17:07;;;;;;;24.30;22.97;;;34.60;44.10;;;;;;4959109;28;20477;-83
2022/05/10 10:19:44;;;;;;;22.87;21.77;;;34.00;43.70;;;;;;4973007;28;20543;-83
2022/05/10 10:22:28;;;;;;;17.93;16.83;;;33.40;44.50;;;;;;4966669;28;20448;-84
2022/05/10 10:25:05;;;;;;;17.73;16.63;;;32.60;44.30;;;;;;4970939;28;20862;-81
2022/05/10 10:27:40;;;;;;;16.77;15.50;;;31.80;45.10;;;;;;4952835;28;20432;-84
2022/05/10 10:30:09;;;;;;;13.73;12.83;;;30.20;50.20;;;;;;4954718;28;20459;-83
2022/05/10 10:32:41;;;;;;;13.23;12.33;;;28.70;50.80;;;;;;4968497;28;20956;-83
2022/05/10 10:35:41;;;;;;;12.30;11.30;;;28.90;54.60;;;;;;4970731;28;20462;-82
2022/05/10 10:38:29;;;;;;;10.70;9.90;;;28.40;59.60;;;;;;4969319;28;20860;-84
2022/05/10 10:41:04;;;;;;;11.30;10.20;;;27.00;57.50;;;;;;4952133;28;20532;-84
2022/05/10 10:43:46;;;;;;;9.73;8.80;;;26.90;54.00;;;;;;4969845;28;20465;-83
2022/05/10 10:46:24;;;;;;;9.03;8.20;;;27.20;57.20;;;;;;4958185;28;20977;-83
2022/05/10 10:48:56;;;;;;;12.33;8.87;;;27.50;55.80;;;;;;4969590;28;20507;-81
2022/05/10 10:51:27;;;;;;;9.03;8.33;;;27.00;57.40;;;;;;4973133;23;21021;-83
2022/05/10 10:53:53;;;;;;;9.03;8.33;;;;;;;;;;4953855;28;20436;-83
2022/05/10 10:56:27;;;;;;;10.20;9.30;;;27.20;57.10;;;;;;4951811;28;20495;-83
2022/05/10 10:59:13;;;;;;;8.63;7.93;;;27.40;53.60;;;;;;4951919;28;20549;-83
2022/05/10 11:01:56;;;;;;;9.13;8.33;;;27.40;52.50;;;;;;4953814;28;20976;-83
2022/05/10 11:04:36;;;;;;;7.93;7.33;;;27.60;51.40;;;;;;4951619;28;20466;-83
2022/05/10 11:07:18;;;;;;;8.00;7.20;;;27.30;53.70;;;;;;4962620;28;20451;-83
2022/05/10 11:09:44;;;;;;;8.93;8.33;;;;;;;;;;4944817;28;20461;-83
2022/05/10 11:12:10;;;;;;;8.53;7.93;;;;;;;;;;4945939;28;20451;-83
2022/05/10 11:15:04;;;;;;;9.73;8.80;;;27.10;55.10;;;;;;4955252;28;20927;-83
2022/05/10 11:17:56;;;;;;;9.33;8.43;;;27.70;53.50;;;;;;4957448;28;20453;-82
2022/05/10 11:21:05;;;;;;;8.67;7.50;;;28.00;59.50;;;;;;4957466;28;20469;-83
2022/05/10 11:23:46;;;;;;;9.27;8.37;;;28.40;52.00;;;;;;4959798;28;20445;-83
2022/05/10 11:26:24;;;;;;;9.90;9.00;;;27.80;53.50;;;;;;4960258;28;20507;-83
2022/05/10 11:28:50;;;;;;;9.43;8.50;;;;;;;;;;4959477;28;20481;-83
2022/05/10 11:31:37;;;;;;;9.13;8.10;;;26.60;55.10;;;;;;4957747;28;20738;-83
2022/05/10 11:34:31;;;;;;;12.40;7.80;;;26.60;55.20;;;;;;4956728;28;20494;-83
2022/05/10 11:37:00;;;;;;;9.23;8.33;;;27.00;58.00;;;;;;4959840;28;20446;-83
2022/05/10 11:40:01;;;;;;;7.60;7.00;;;27.10;58.50;;;;;;4945099;28;20809;-83
2022/05/10 11:42:46;;;;;;;7.87;6.93;;;27.60;58.40;;;;;;4959657;28;20835;-83
2022/05/10 11:45:27;;;;;;;7.20;6.60;;;;;;;;;;4959840;28;20867;-83
2022/05/10 11:48:21;;;;;;;7.43;6.87;;;27.30;55.00;;;;;;4956764;28;20923;-83
2022/05/10 11:54:18;;;;;;;8.23;7.47;;;27.70;54.10;;;;;;4958501;28;20455;-83
2022/05/10 11:56:47;;;;;;;9.00;7.63;;;27.60;56.00;;;;;;4959666;28;20506;-83
2022/05/10 11:59:23;;;;;;;8.20;7.40;;;27.80;55.90;;;;;;4956959;28;20446;-83
2022/05/10 12:01:51;;;;;;;9.97;8.00;;;27.40;57.70;;;;;;4956088;28;20561;-83
2022/05/10 12:04:36;;;;;;;8.10;7.47;;;27.70;56.80;;;;;;4953566;28;20475;-83
2022/05/10 12:07:20;;;;;;;9.43;7.83;;;26.60;56.80;;;;;;4943971;28;20438;-82
2022/05/10 12:09:52;;;;;;;9.13;8.10;;;26.90;57.30;;;;;;4943522;28;20495;-83
2022/05/10 12:12:47;;;;;;;8.73;7.93;;;27.40;57.10;;;;;;4957474;28;20449;-83
2022/05/10 12:21:37;;;;;;;8.20;7.43;;;;;;;;;;4957942;28;20716;-82
2022/05/10 12:24:27;;;;;;;8.80;8.00;;;28.90;55.80;;;;;;4962442;28;20772;-82
2022/05/10 12:26:59;;;;;;;10.77;8.70;;;28.50;54.30;;;;;;4959199;28;20869;-82
2022/05/10 12:29:40;;;;;;;10.73;8.80;;;28.10;55.00;;;;;;4949497;28;20433;-82
2022/05/10 12:32:21;;;;;;;24.37;9.70;;;28.40;69.90;;;;;;4955837;28;20444;-84
2022/05/10 12:34:47;;;;;;;11.60;9.87;;;;;;;;;;4955729;28;20467;-83
2022/05/10 12:37:26;;;;;;;9.17;8.37;;;27.90;58.00;;;;;;4958347;28;20508;-83
2022/05/10 12:40:17;;;;;;;8.73;8.03;;;28.20;59.00;;;;;;4949262;28;20433;-83
2022/05/10 12:42:43;;;;;;;8.10;7.50;;;;;;;;;;4960416;28;20426;-83
2022/05/10 12:45:09;;;;;;;9.70;8.73;;;;;;;;;;4957378;28;20475;-84
2022/05/10 12:47:50;;;;;;;8.03;7.37;;;28.20;57.20;;;;;;4946843;28;20480;-84
2022/05/10 12:50:39;;;;;;;10.43;8.77;;;27.70;56.80;;;;;;4946076;28;20181;-84
2022/05/10 12:53:26;;;;;;;10.20;9.30;;;27.60;58.60;;;;;;4944121;28;20534;-83
2022/05/10 12:56:00;;;;;;;9.57;8.77;;;27.60;59.50;;;;;;4943566;28;20563;-83
2022/05/10 12:58:34;;;;;;;9.60;7.90;;;27.90;59.00;;;;;;4940269;28;21248;-83
2022/05/10 13:01:01;;;;;;;8.33;7.53;;;28.20;57.90;;;;;;4940555;28;20464;-83
2022/05/10 13:03:34;;;;;;;9.30;8.60;;;28.40;59.60;;;;;;4956377;28;20450;-83
2022/05/10 13:06:11;;;;;;;10.07;9.03;;;28.60;58.30;;;;;;4958110;28;20473;-83
2022/05/10 13:08:53;;;;;;;9.33;8.53;;;28.30;55.60;;;;;;4956652;28;21034;-83
2022/05/10 13:11:24;;;;;;;8.60;8.00;;;28.30;56.20;;;;;;4938106;28;20931;-84
2022/05/10 13:13:53;;;;;;;9.73;8.73;;;28.00;56.20;;;;;;4957795;28;20465;-84
2022/05/10 13:16:20;;;;;;;9.03;8.20;;;27.90;66.00;;;;;;4957844;28;20486;-84
2022/05/10 13:18:47;;;;;;;8.47;7.80;;;28.00;57.00;;;;;;4957025;28;20426;-83
2022/05/10 13:21:24;;;;;;;8.93;7.57;;;28.00;59.40;;;;;;4940127;28;20585;-84
2022/05/10 13:23:50;;;;;;;8.37;7.70;;;;;;;;;;4959383;28;20802;-83
2022/05/10 13:26:16;;;;;;;8.13;7.47;;;;;;;;;;4942269;28;20430;-84
2022/05/10 13:29:03;;;;;;;10.30;7.40;;;27.20;61.20;;;;;;4956166;28;20428;-83
2022/05/10 13:31:35;;;;;;;8.73;7.87;;;27.10;74.20;;;;;;4956401;28;20494;-83
2022/05/10 13:34:14;;;;;;;9.17;8.37;;;27.00;60.20;;;;;;4955234;28;20446;-84
2022/05/10 13:36:46;;;;;;;8.17;7.37;;;26.60;58.40;;;;;;4961437;28;20425;-84
2022/05/10 13:39:13;;;;;;;10.10;8.17;;;26.70;60.60;;;;;;4961379;28;20511;-84
2022/05/10 13:41:39;;;;;;;8.47;7.63;;;27.30;81.00;;;;;;4956218;28;20455;-83
2022/05/10 13:44:13;;;;;;;7.30;6.57;;;27.80;62.10;;;;;;4940622;28;20466;-83
2022/05/10 13:46:54;;;;;;;8.50;7.70;;;28.60;73.00;;;;;;4958808;28;20180;-84
2022/05/10 13:49:23;;;;;;;7.80;7.20;;;29.00;55.60;;;;;;4959594;28;20950;-83
2022/05/10 13:51:54;;;;;;;13.33;8.20;;;29.60;57.10;;;;;;4962316;28;20465;-84
2022/05/10 13:54:25;;;;;;;11.27;8.57;;;30.20;54.90;;;;;;4960830;28;20463;-83
2022/05/10 13:56:52;;;;;;;9.30;8.37;;;;;;;;;;4958924;28;20936;-84